CYVL

Colville Lake / Tommy Kochon Airport

Colville Lake, Northwest Territories, Canada
METAR CYVL 201704Z AUTO 35010KT 9SM -SN BKN009 OVC016 M04/M05 A2939 RMK SLP974
Observed Flight Rules
Oct-20 @ 17:04 UTC (17 minutes ago) Instrument Flight Rules
Wind Visibility Clouds Conditions
350° at 10 knots 9 miles
  • Broken at 900' AGL
  • Overcast at 1,600' AGL
  • Light Snow
Temperatures Readings
Current -4°C / 25°F
Dewpoint -5°C / 23°F
Humidity 93%
Altimeter 29.39" Hg
Pressure 997.4 hPa
Elevation 259
METAR CYVL 201704Z AUTO 35010KT 9SM -SN BKN009 OVC016 M04/M05 A2939 RMK SLP974
Observed Flight Rules
Oct-20 @ 17:04 UTC
(17 minutes ago)
IFR
Wind Visibility
350° at 10 knots 9 miles
Clouds
  • Broken at 900' AGL
  • Overcast at 1,600' AGL
Conditions
  • Light Snow
Temperature Dewpoint
-4°C / 25°F -5°C / 23°F
Humidity Altimeter Pressure
93% 29.39" Hg 997.4 hPa